sensor_id;sensor_type;location;lat;lon;timestamp;pressure;altitude;pressure_sealevel;temperature;humidity
77723;BME280;67811;42.656;23.394;2023-10-08T00:00:12;95519.63;;;10.94;51.16
77723;BME280;67811;42.656;23.394;2023-10-08T00:02:37;95517.28;;;10.99;50.81
77723;BME280;67811;42.656;23.394;2023-10-08T00:05:03;95518.53;;;10.89;50.32
77723;BME280;67811;42.656;23.394;2023-10-08T00:07:28;95517.22;;;10.85;50.70
77723;BME280;67811;42.656;23.394;2023-10-08T00:09:53;95516.59;;;10.74;51.17
77723;BME280;67811;42.656;23.394;2023-10-08T00:12:19;95513.00;;;10.67;51.06
77723;BME280;67811;42.656;23.394;2023-10-08T00:14:45;95500.91;;;10.65;50.77
77723;BME280;67811;42.656;23.394;2023-10-08T00:17:12;95517.88;;;10.55;51.46
77723;BME280;67811;42.656;23.394;2023-10-08T00:19:37;95506.91;;;10.59;51.61
77723;BME280;67811;42.656;23.394;2023-10-08T00:22:02;95500.53;;;10.76;51.36
77723;BME280;67811;42.656;23.394;2023-10-08T00:24:28;95497.47;;;10.87;50.74
77723;BME280;67811;42.656;23.394;2023-10-08T00:26:53;95496.59;;;10.72;51.19
77723;BME280;67811;42.656;23.394;2023-10-08T00:29:18;95505.19;;;10.74;51.03
77723;BME280;67811;42.656;23.394;2023-10-08T00:31:44;95504.66;;;10.78;51.53
77723;BME280;67811;42.656;23.394;2023-10-08T00:34:13;95499.53;;;10.77;51.53
77723;BME280;67811;42.656;23.394;2023-10-08T00:36:43;95496.81;;;10.85;50.82
77723;BME280;67811;42.656;23.394;2023-10-08T00:39:09;95498.25;;;10.96;50.71
77723;BME280;67811;42.656;23.394;2023-10-08T00:41:34;95493.56;;;10.98;50.11
77723;BME280;67811;42.656;23.394;2023-10-08T00:44:00;95487.63;;;10.73;50.54
77723;BME280;67811;42.656;23.394;2023-10-08T00:46:25;95491.59;;;10.46;51.25
77723;BME280;67811;42.656;23.394;2023-10-08T00:48:54;95486.81;;;10.41;51.11
77723;BME280;67811;42.656;23.394;2023-10-08T00:51:24;95481.22;;;10.36;52.01
77723;BME280;67811;42.656;23.394;2023-10-08T00:54:10;95477.00;;;10.50;51.14
77723;BME280;67811;42.656;23.394;2023-10-08T00:56:37;95482.13;;;10.51;51.70
77723;BME280;67811;42.656;23.394;2023-10-08T00:59:03;95469.06;;;10.50;51.19
77723;BME280;67811;42.656;23.394;2023-10-08T01:01:28;95475.00;;;10.52;51.51
77723;BME280;67811;42.656;23.394;2023-10-08T01:03:53;95484.00;;;10.43;51.28
77723;BME280;67811;42.656;23.394;2023-10-08T01:06:19;95480.72;;;10.33;51.97
77723;BME280;67811;42.656;23.394;2023-10-08T01:08:44;95483.22;;;10.34;51.80
77723;BME280;67811;42.656;23.394;2023-10-08T01:11:21;95479.88;;;10.40;51.75
77723;BME280;67811;42.656;23.394;2023-10-08T01:13:47;95470.97;;;10.33;51.95
77723;BME280;67811;42.656;23.394;2023-10-08T01:16:12;95478.56;;;10.36;51.66
77723;BME280;67811;42.656;23.394;2023-10-08T01:18:38;95475.16;;;10.27;52.25
77723;BME280;67811;42.656;23.394;2023-10-08T01:21:03;95473.31;;;10.20;52.65
77723;BME280;67811;42.656;23.394;2023-10-08T01:23:28;95480.91;;;10.31;52.40
77723;BME280;67811;42.656;23.394;2023-10-08T01:25:53;95475.91;;;10.36;52.60
77723;BME280;67811;42.656;23.394;2023-10-08T01:28:19;95471.75;;;10.42;52.36
77723;BME280;67811;42.656;23.394;2023-10-08T01:30:44;95474.47;;;10.34;52.44
77723;BME280;67811;42.656;23.394;2023-10-08T01:33:09;95474.75;;;10.39;52.62
77723;BME280;67811;42.656;23.394;2023-10-08T01:35:35;95476.19;;;10.49;51.66
77723;BME280;67811;42.656;23.394;2023-10-08T01:38:00;95480.72;;;10.64;51.27
77723;BME280;67811;42.656;23.394;2023-10-08T01:40:26;95481.50;;;10.49;51.62
77723;BME280;67811;42.656;23.394;2023-10-08T01:42:52;95478.97;;;10.17;52.74
77723;BME280;67811;42.656;23.394;2023-10-08T01:45:17;95485.31;;;9.99;53.28
77723;BME280;67811;42.656;23.394;2023-10-08T01:47:43;95480.69;;;9.93;53.44
77723;BME280;67811;42.656;23.394;2023-10-08T01:50:08;95482.97;;;10.13;53.03
77723;BME280;67811;42.656;23.394;2023-10-08T01:52:33;95478.06;;;9.93;53.58
77723;BME280;67811;42.656;23.394;2023-10-08T01:54:58;95486.97;;;10.00;53.62
77723;BME280;67811;42.656;23.394;2023-10-08T01:57:24;95478.06;;;9.93;53.90
77723;BME280;67811;42.656;23.394;2023-10-08T01:59:49;95477.53;;;9.98;53.87
77723;BME280;67811;42.656;23.394;2023-10-08T02:02:14;95484.94;;;10.11;53.70
77723;BME280;67811;42.656;23.394;2023-10-08T02:04:39;95474.28;;;10.27;53.37
77723;BME280;67811;42.656;23.394;2023-10-08T02:07:05;95480.78;;;10.24;53.41
77723;BME280;67811;42.656;23.394;2023-10-08T02:09:31;95493.56;;;10.04;53.20
77723;BME280;67811;42.656;23.394;2023-10-08T02:11:56;95484.72;;;9.89;53.67
77723;BME280;67811;42.656;23.394;2023-10-08T02:14:22;95482.88;;;9.90;53.23
77723;BME280;67811;42.656;23.394;2023-10-08T02:16:51;95476.78;;;9.81;54.04
77723;BME280;67811;42.656;23.394;2023-10-08T02:19:16;95479.28;;;9.74;54.01
77723;BME280;67811;42.656;23.394;2023-10-08T02:21:41;95480.97;;;9.67;54.53
77723;BME280;67811;42.656;23.394;2023-10-08T02:24:07;95477.28;;;9.85;53.86
77723;BME280;67811;42.656;23.394;2023-10-08T02:26:33;95471.97;;;9.85;54.19
77723;BME280;67811;42.656;23.394;2023-10-08T02:28:58;95477.72;;;9.96;53.73
77723;BME280;67811;42.656;23.394;2023-10-08T02:31:23;95471.47;;;9.89;54.22
77723;BME280;67811;42.656;23.394;2023-10-08T02:33:49;95468.16;;;9.87;54.66
77723;BME280;67811;42.656;23.394;2023-10-08T02:36:14;95466.19;;;9.81;54.83
77723;BME280;67811;42.656;23.394;2023-10-08T02:38:39;95470.22;;;9.61;55.36
77723;BME280;67811;42.656;23.394;2023-10-08T02:41:04;95475.03;;;9.57;55.42
77723;BME280;67811;42.656;23.394;2023-10-08T02:43:30;95462.94;;;9.63;54.78
77723;BME280;67811;42.656;23.394;2023-10-08T02:45:55;95455.88;;;9.47;55.81
77723;BME280;67811;42.656;23.394;2023-10-08T02:48:20;95457.97;;;9.60;55.16
77723;BME280;67811;42.656;23.394;2023-10-08T02:50:45;95457.16;;;9.59;55.40
77723;BME280;67811;42.656;23.394;2023-10-08T02:53:11;95461.44;;;9.68;55.04
77723;BME280;67811;42.656;23.394;2023-10-08T02:55:38;95460.13;;;9.64;55.16
77723;BME280;67811;42.656;23.394;2023-10-08T02:58:03;95457.94;;;9.76;54.39
77723;BME280;67811;42.656;23.394;2023-10-08T03:00:29;95464.56;;;9.72;54.35
77723;BME280;67811;42.656;23.394;2023-10-08T03:02:56;95476.13;;;9.71;54.01
77723;BME280;67811;42.656;23.394;2023-10-08T03:05:21;95462.06;;;9.79;53.95
77723;BME280;67811;42.656;23.394;2023-10-08T03:07:46;95471.16;;;9.84;54.02
77723;BME280;67811;42.656;23.394;2023-10-08T03:10:12;95476.78;;;9.89;54.29
77723;BME280;67811;42.656;23.394;2023-10-08T03:12:37;95471.59;;;9.96;53.97
77723;BME280;67811;42.656;23.394;2023-10-08T03:15:03;95477.09;;;9.94;53.38
77723;BME280;67811;42.656;23.394;2023-10-08T03:17:28;95464.03;;;9.85;53.48
77723;BME280;67811;42.656;23.394;2023-10-08T03:19:54;95463.28;;;9.68;54.35
77723;BME280;67811;42.656;23.394;2023-10-08T03:22:19;95462.59;;;9.74;53.95
77723;BME280;67811;42.656;23.394;2023-10-08T03:24:44;95455.59;;;9.81;53.66
77723;BME280;67811;42.656;23.394;2023-10-08T03:27:09;95465.50;;;9.87;53.89
77723;BME280;67811;42.656;23.394;2023-10-08T03:29:35;95459.53;;;9.93;54.14
77723;BME280;67811;42.656;23.394;2023-10-08T03:32:00;95462.53;;;9.90;54.28
77723;BME280;67811;42.656;23.394;2023-10-08T03:34:26;95454.75;;;9.89;54.88
77723;BME280;67811;42.656;23.394;2023-10-08T03:36:51;95451.38;;;10.03;54.32
77723;BME280;67811;42.656;23.394;2023-10-08T03:39:17;95447.41;;;10.07;53.56
77723;BME280;67811;42.656;23.394;2023-10-08T03:41:43;95445.25;;;10.02;53.35
77723;BME280;67811;42.656;23.394;2023-10-08T03:44:08;95445.09;;;10.04;53.21
77723;BME280;67811;42.656;23.394;2023-10-08T03:46:34;95461.19;;;9.94;53.85
77723;BME280;67811;42.656;23.394;2023-10-08T03:48:59;95460.22;;;9.87;54.34
77723;BME280;67811;42.656;23.394;2023-10-08T03:51:24;95443.94;;;9.98;53.51
77723;BME280;67811;42.656;23.394;2023-10-08T03:53:49;95450.94;;;9.91;53.53
77723;BME280;67811;42.656;23.394;2023-10-08T03:56:15;95444.69;;;9.76;54.68
77723;BME280;67811;42.656;23.394;2023-10-08T03:58:40;95443.56;;;9.79;53.50
77723;BME280;67811;42.656;23.394;2023-10-08T04:01:05;95440.59;;;9.73;54.19
77723;BME280;67811;42.656;23.394;2023-10-08T04:03:31;95431.06;;;9.56;54.69
77723;BME280;67811;42.656;23.394;2023-10-08T04:05:56;95429.59;;;9.45;55.33
77723;BME280;67811;42.656;23.394;2023-10-08T04:08:21;95430.94;;;9.17;56.20
77723;BME280;67811;42.656;23.394;2023-10-08T04:10:46;95431.63;;;9.11;56.58
77723;BME280;67811;42.656;23.394;2023-10-08T04:13:12;95431.47;;;9.04;57.17
77723;BME280;67811;42.656;23.394;2023-10-08T04:15:38;95445.88;;;9.02;57.53
77723;BME280;67811;42.656;23.394;2023-10-08T04:18:03;95441.06;;;8.97;57.93
77723;BME280;67811;42.656;23.394;2023-10-08T04:20:29;95442.56;;;9.08;57.60
77723;BME280;67811;42.656;23.394;2023-10-08T04:22:54;95438.09;;;9.08;57.72
77723;BME280;67811;42.656;23.394;2023-10-08T04:25:19;95437.88;;;9.34;56.63
77723;BME280;67811;42.656;23.394;2023-10-08T04:27:44;95438.22;;;9.31;57.00
77723;BME280;67811;42.656;23.394;2023-10-08T04:30:10;95442.53;;;9.24;57.36
77723;BME280;67811;42.656;23.394;2023-10-08T04:32:36;95432.44;;;9.28;57.20
77723;BME280;67811;42.656;23.394;2023-10-08T04:35:01;95433.88;;;9.46;56.51
77723;BME280;67811;42.656;23.394;2023-10-08T04:37:26;95428.56;;;9.55;55.46
77723;BME280;67811;42.656;23.394;2023-10-08T04:39:51;95434.16;;;9.60;55.32
77723;BME280;67811;42.656;23.394;2023-10-08T04:42:17;95438.50;;;9.44;55.67
77723;BME280;67811;42.656;23.394;2023-10-08T04:44:42;95440.63;;;9.57;56.08
77723;BME280;67811;42.656;23.394;2023-10-08T04:47:07;95443.69;;;9.77;55.31
77723;BME280;67811;42.656;23.394;2023-10-08T04:49:33;95439.78;;;10.04;55.00
77723;BME280;67811;42.656;23.394;2023-10-08T04:54:26;95440.22;;;10.16;54.84
77723;BME280;67811;42.656;23.394;2023-10-08T04:56:51;95442.81;;;10.32;55.19
77723;BME280;67811;42.656;23.394;2023-10-08T04:59:17;95437.72;;;10.31;55.39
77723;BME280;67811;42.656;23.394;2023-10-08T05:01:42;95436.19;;;10.59;54.08
77723;BME280;67811;42.656;23.394;2023-10-08T05:04:07;95436.59;;;10.71;53.29
77723;BME280;67811;42.656;23.394;2023-10-08T05:06:34;95440.22;;;10.55;53.44
77723;BME280;67811;42.656;23.394;2023-10-08T05:08:59;95438.28;;;11.09;52.67
77723;BME280;67811;42.656;23.394;2023-10-08T05:11:24;95443.25;;;11.95;55.52
77723;BME280;67811;42.656;23.394;2023-10-08T05:13:50;95435.31;;;15.83;49.40
77723;BME280;67811;42.656;23.394;2023-10-08T05:16:15;95438.09;;;17.60;42.81
77723;BME280;67811;42.656;23.394;2023-10-08T05:18:40;95435.56;;;16.84;38.62
77723;BME280;67811;42.656;23.394;2023-10-08T05:21:06;95431.16;;;15.87;39.85
77723;BME280;67811;42.656;23.394;2023-10-08T05:23:31;95440.84;;;15.15;41.62
77723;BME280;67811;42.656;23.394;2023-10-08T05:25:57;95438.78;;;15.10;41.72
77723;BME280;67811;42.656;23.394;2023-10-08T05:28:22;95434.69;;;15.01;42.29
77723;BME280;67811;42.656;23.394;2023-10-08T05:30:48;95431.41;;;15.25;41.92
77723;BME280;67811;42.656;23.394;2023-10-08T05:33:13;95432.22;;;15.59;41.18
77723;BME280;67811;42.656;23.394;2023-10-08T05:35:40;95441.66;;;15.95;40.20
77723;BME280;67811;42.656;23.394;2023-10-08T05:38:06;95441.41;;;16.16;39.83
77723;BME280;67811;42.656;23.394;2023-10-08T05:40:32;95442.06;;;16.56;39.32
77723;BME280;67811;42.656;23.394;2023-10-08T05:42:57;95433.34;;;16.68;38.78
77723;BME280;67811;42.656;23.394;2023-10-08T05:45:22;95439.88;;;17.17;37.93
77723;BME280;67811;42.656;23.394;2023-10-08T05:47:47;95439.19;;;17.28;37.19
77723;BME280;67811;42.656;23.394;2023-10-08T05:50:13;95452.16;;;17.24;37.51
77723;BME280;67811;42.656;23.394;2023-10-08T05:52:38;95442.91;;;17.27;37.73
77723;BME280;67811;42.656;23.394;2023-10-08T05:55:04;95444.88;;;16.68;38.17
77723;BME280;67811;42.656;23.394;2023-10-08T05:57:29;95453.69;;;17.13;38.08
77723;BME280;67811;42.656;23.394;2023-10-08T05:59:54;95443.81;;;17.89;36.71
77723;BME280;67811;42.656;23.394;2023-10-08T06:02:20;95455.81;;;17.86;36.37
77723;BME280;67811;42.656;23.394;2023-10-08T06:04:45;95445.50;;;18.08;35.68
77723;BME280;67811;42.656;23.394;2023-10-08T06:07:10;95443.41;;;18.47;35.59
77723;BME280;67811;42.656;23.394;2023-10-08T06:09:36;95443.22;;;19.09;34.43
77723;BME280;67811;42.656;23.394;2023-10-08T06:12:01;95440.13;;;18.93;34.83
77723;BME280;67811;42.656;23.394;2023-10-08T06:14:26;95431.91;;;19.07;34.68
77723;BME280;67811;42.656;23.394;2023-10-08T06:16:52;95430.28;;;19.71;33.82
77723;BME280;67811;42.656;23.394;2023-10-08T06:19:18;95429.94;;;20.03;32.80
77723;BME280;67811;42.656;23.394;2023-10-08T06:21:43;95441.88;;;20.07;33.33
77723;BME280;67811;42.656;23.394;2023-10-08T06:24:09;95434.44;;;20.89;31.94
77723;BME280;67811;42.656;23.394;2023-10-08T06:26:36;95435.66;;;20.70;31.58
77723;BME280;67811;42.656;23.394;2023-10-08T06:29:01;95434.13;;;21.31;31.18
77723;BME280;67811;42.656;23.394;2023-10-08T06:31:27;95436.09;;;21.86;30.22
77723;BME280;67811;42.656;23.394;2023-10-08T06:33:52;95433.72;;;22.06;30.99
77723;BME280;67811;42.656;23.394;2023-10-08T06:36:17;95440.13;;;22.39;30.16
77723;BME280;67811;42.656;23.394;2023-10-08T06:38:44;95443.22;;;22.48;30.28
77723;BME280;67811;42.656;23.394;2023-10-08T06:41:12;95429.75;;;22.92;29.46
77723;BME280;67811;42.656;23.394;2023-10-08T06:43:38;95431.00;;;23.38;28.38
77723;BME280;67811;42.656;23.394;2023-10-08T06:46:04;95424.44;;;23.61;28.64
77723;BME280;67811;42.656;23.394;2023-10-08T06:48:29;95429.69;;;23.40;29.15
77723;BME280;67811;42.656;23.394;2023-10-08T06:50:55;95420.69;;;23.99;29.07
77723;BME280;67811;42.656;23.394;2023-10-08T06:53:21;95415.38;;;24.14;26.78
77723;BME280;67811;42.656;23.394;2023-10-08T06:55:46;95420.34;;;23.85;28.13
77723;BME280;67811;42.656;23.394;2023-10-08T06:58:11;95413.63;;;23.61;27.84
77723;BME280;67811;42.656;23.394;2023-10-08T07:00:37;95425.59;;;23.65;27.49
77723;BME280;67811;42.656;23.394;2023-10-08T07:03:03;95419.47;;;23.48;27.68
77723;BME280;67811;42.656;23.394;2023-10-08T07:05:28;95425.72;;;23.80;27.45
77723;BME280;67811;42.656;23.394;2023-10-08T07:07:54;95421.94;;;23.81;26.17
77723;BME280;67811;42.656;23.394;2023-10-08T07:10:19;95414.75;;;24.39;26.49
77723;BME280;67811;42.656;23.394;2023-10-08T07:12:44;95419.63;;;24.42;27.20
77723;BME280;67811;42.656;23.394;2023-10-08T07:15:10;95424.38;;;24.78;26.33
77723;BME280;67811;42.656;23.394;2023-10-08T07:17:35;95422.34;;;25.15;25.69
77723;BME280;67811;42.656;23.394;2023-10-08T07:20:00;95420.63;;;24.94;26.76
77723;BME280;67811;42.656;23.394;2023-10-08T07:22:26;95426.69;;;25.27;25.79
77723;BME280;67811;42.656;23.394;2023-10-08T07:24:51;95403.16;;;25.83;26.15
77723;BME280;67811;42.656;23.394;2023-10-08T07:27:17;95400.16;;;26.05;26.84
77723;BME280;67811;42.656;23.394;2023-10-08T07:29:42;95395.78;;;26.09;24.54
77723;BME280;67811;42.656;23.394;2023-10-08T07:32:08;95404.19;;;26.13;24.18
77723;BME280;67811;42.656;23.394;2023-10-08T07:34:33;95409.09;;;26.16;25.04
77723;BME280;67811;42.656;23.394;2023-10-08T07:36:58;95393.38;;;25.67;25.79
77723;BME280;67811;42.656;23.394;2023-10-08T07:39:23;95391.72;;;26.01;24.79
77723;BME280;67811;42.656;23.394;2023-10-08T07:41:49;95390.13;;;25.90;24.39
77723;BME280;67811;42.656;23.394;2023-10-08T07:44:15;95390.09;;;25.60;24.86
77723;BME280;67811;42.656;23.394;2023-10-08T07:46:40;95377.66;;;25.79;24.92
77723;BME280;67811;42.656;23.394;2023-10-08T07:49:05;95382.50;;;25.82;25.51
77723;BME280;67811;42.656;23.394;2023-10-08T07:51:31;95387.66;;;25.73;25.14
77723;BME280;67811;42.656;23.394;2023-10-08T07:53:56;95378.69;;;25.98;25.46
77723;BME280;67811;42.656;23.394;2023-10-08T07:56:25;95378.94;;;26.92;25.44
77723;BME280;67811;42.656;23.394;2023-10-08T07:58:53;95363.47;;;27.32;23.53
77723;BME280;67811;42.656;23.394;2023-10-08T08:01:18;95361.72;;;27.07;22.73
77723;BME280;67811;42.656;23.394;2023-10-08T08:03:44;95372.09;;;26.95;24.18
77723;BME280;67811;42.656;23.394;2023-10-08T08:06:09;95362.25;;;27.14;23.24
77723;BME280;67811;42.656;23.394;2023-10-08T08:08:36;95364.63;;;26.71;23.42
77723;BME280;67811;42.656;23.394;2023-10-08T08:11:03;95369.19;;;27.65;22.82
77723;BME280;67811;42.656;23.394;2023-10-08T08:13:28;95359.59;;;27.77;22.09
77723;BME280;67811;42.656;23.394;2023-10-08T08:15:55;95358.69;;;27.87;22.80
77723;BME280;67811;42.656;23.394;2023-10-08T08:18:20;95348.13;;;27.80;22.26
77723;BME280;67811;42.656;23.394;2023-10-08T08:20:45;95335.72;;;28.46;21.93
77723;BME280;67811;42.656;23.394;2023-10-08T08:23:11;95330.47;;;29.30;20.96
77723;BME280;67811;42.656;23.394;2023-10-08T08:25:40;95325.88;;;28.69;21.08
77723;BME280;67811;42.656;23.394;2023-10-08T08:28:06;95327.28;;;28.85;21.30
77723;BME280;67811;42.656;23.394;2023-10-08T08:30:31;95328.63;;;29.26;20.98
77723;BME280;67811;42.656;23.394;2023-10-08T08:32:56;95323.41;;;29.29;21.00
77723;BME280;67811;42.656;23.394;2023-10-08T08:35:22;95326.91;;;29.81;20.85
77723;BME280;67811;42.656;23.394;2023-10-08T08:37:47;95317.88;;;30.41;19.78
77723;BME280;67811;42.656;23.394;2023-10-08T08:40:12;95318.81;;;30.23;19.58
77723;BME280;67811;42.656;23.394;2023-10-08T08:42:38;95310.28;;;30.24;19.84
77723;BME280;67811;42.656;23.394;2023-10-08T08:45:06;95310.38;;;29.59;19.56
77723;BME280;67811;42.656;23.394;2023-10-08T08:47:38;95313.78;;;29.32;19.63
77723;BME280;67811;42.656;23.394;2023-10-08T08:50:03;95308.91;;;28.96;19.81
77723;BME280;67811;42.656;23.394;2023-10-08T08:52:28;95297.53;;;29.08;19.68
77723;BME280;67811;42.656;23.394;2023-10-08T08:54:54;95307.16;;;28.81;20.25
77723;BME280;67811;42.656;23.394;2023-10-08T08:57:19;95314.72;;;28.66;20.60
77723;BME280;67811;42.656;23.394;2023-10-08T08:59:51;95299.44;;;28.46;21.16
77723;BME280;67811;42.656;23.394;2023-10-08T09:02:17;95307.22;;;28.09;21.04
77723;BME280;67811;42.656;23.394;2023-10-08T09:04:42;95294.16;;;27.19;20.84
77723;BME280;67811;42.656;23.394;2023-10-08T09:07:08;95293.28;;;26.45;21.07
77723;BME280;67811;42.656;23.394;2023-10-08T09:09:34;95299.41;;;26.01;21.53
77723;BME280;67811;42.656;23.394;2023-10-08T09:12:00;95297.59;;;25.20;22.20
77723;BME280;67811;42.656;23.394;2023-10-08T09:14:26;95291.03;;;24.86;22.47
77723;BME280;67811;42.656;23.394;2023-10-08T09:16:56;95292.13;;;24.80;22.36
77723;BME280;67811;42.656;23.394;2023-10-08T09:19:22;95289.94;;;24.82;23.16
77723;BME280;67811;42.656;23.394;2023-10-08T09:22:06;95292.06;;;24.49;23.07
77723;BME280;67811;42.656;23.394;2023-10-08T09:24:33;95284.47;;;24.46;23.24
77723;BME280;67811;42.656;23.394;2023-10-08T09:27:00;95284.25;;;24.93;22.52
77723;BME280;67811;42.656;23.394;2023-10-08T09:29:25;95288.88;;;25.64;22.28
77723;BME280;67811;42.656;23.394;2023-10-08T09:31:57;95273.03;;;26.67;21.97
77723;BME280;67811;42.656;23.394;2023-10-08T09:34:30;95271.94;;;27.41;20.03
77723;BME280;67811;42.656;23.394;2023-10-08T09:36:56;95273.75;;;27.51;19.83
77723;BME280;67811;42.656;23.394;2023-10-08T09:39:23;95274.97;;;27.40;20.17
77723;BME280;67811;42.656;23.394;2023-10-08T09:41:56;95271.03;;;27.22;20.17
77723;BME280;67811;42.656;23.394;2023-10-08T09:44:23;95268.47;;;27.65;19.68
77723;BME280;67811;42.656;23.394;2023-10-08T09:46:52;95257.53;;;28.18;19.08
77723;BME280;67811;42.656;23.394;2023-10-08T09:49:23;95253.63;;;27.81;18.98
77723;BME280;67811;42.656;23.394;2023-10-08T09:51:49;95244.88;;;28.08;19.89
77723;BME280;67811;42.656;23.394;2023-10-08T09:54:22;95235.81;;;27.01;19.43
77723;BME280;67811;42.656;23.394;2023-10-08T09:56:48;95238.63;;;27.25;19.78
77723;BME280;67811;42.656;23.394;2023-10-08T09:59:14;95244.81;;;27.60;19.37
77723;BME280;67811;42.656;23.394;2023-10-08T10:01:42;95242.53;;;28.63;18.76
77723;BME280;67811;42.656;23.394;2023-10-08T10:04:09;95239.28;;;27.94;19.44
77723;BME280;67811;42.656;23.394;2023-10-08T10:06:34;95233.94;;;26.97;19.75
77723;BME280;67811;42.656;23.394;2023-10-08T10:09:00;95247.16;;;26.74;20.36
77723;BME280;67811;42.656;23.394;2023-10-08T10:11:26;95228.59;;;25.88;21.22
77723;BME280;67811;42.656;23.394;2023-10-08T10:13:58;95221.38;;;26.17;21.44
77723;BME280;67811;42.656;23.394;2023-10-08T10:16:23;95231.06;;;25.64;21.32
77723;BME280;67811;42.656;23.394;2023-10-08T10:18:49;95233.28;;;25.52;22.17
77723;BME280;67811;42.656;23.394;2023-10-08T10:23:41;95233.25;;;25.57;21.72
77723;BME280;67811;42.656;23.394;2023-10-08T10:26:33;95228.06;;;25.81;21.72
77723;BME280;67811;42.656;23.394;2023-10-08T10:31:33;95211.38;;;26.62;20.59
77723;BME280;67811;42.656;23.394;2023-10-08T10:33:59;95213.19;;;27.11;20.42
77723;BME280;67811;42.656;23.394;2023-10-08T10:36:29;95201.63;;;26.90;20.45
77723;BME280;67811;42.656;23.394;2023-10-08T10:38:55;95198.09;;;26.90;20.58
77723;BME280;67811;42.656;23.394;2023-10-08T10:41:20;95179.91;;;27.48;20.47
77723;BME280;67811;42.656;23.394;2023-10-08T10:43:45;95194.09;;;27.16;21.33
77723;BME280;67811;42.656;23.394;2023-10-08T10:46:11;95193.25;;;26.87;21.54
77723;BME280;67811;42.656;23.394;2023-10-08T10:48:36;95188.06;;;26.85;21.80
77723;BME280;67811;42.656;23.394;2023-10-08T10:51:01;95186.72;;;26.88;22.08
77723;BME280;67811;42.656;23.394;2023-10-08T10:53:27;95174.31;;;27.35;21.49
77723;BME280;67811;42.656;23.394;2023-10-08T10:55:52;95175.03;;;26.87;22.41
77723;BME280;67811;42.656;23.394;2023-10-08T10:58:18;95173.56;;;26.66;22.53
77723;BME280;67811;42.656;23.394;2023-10-08T11:00:44;95167.38;;;26.89;22.77
77723;BME280;67811;42.656;23.394;2023-10-08T11:03:09;95158.88;;;26.96;22.16
77723;BME280;67811;42.656;23.394;2023-10-08T11:05:37;95161.31;;;26.97;22.07
77723;BME280;67811;42.656;23.394;2023-10-08T11:08:04;95157.66;;;26.83;22.40
77723;BME280;67811;42.656;23.394;2023-10-08T11:10:31;95163.56;;;26.90;22.71
77723;BME280;67811;42.656;23.394;2023-10-08T11:12:57;95161.91;;;26.94;22.17
77723;BME280;67811;42.656;23.394;2023-10-08T11:15:22;95172.78;;;26.94;22.34
77723;BME280;67811;42.656;23.394;2023-10-08T11:17:49;95159.06;;;27.10;22.32
77723;BME280;67811;42.656;23.394;2023-10-08T11:20:26;95159.19;;;27.23;21.92
77723;BME280;67811;42.656;23.394;2023-10-08T11:22:52;95150.28;;;26.55;22.71
77723;BME280;67811;42.656;23.394;2023-10-08T11:25:22;95158.03;;;26.71;22.18
77723;BME280;67811;42.656;23.394;2023-10-08T11:27:47;95157.84;;;26.58;22.61
77723;BME280;67811;42.656;23.394;2023-10-08T11:30:14;95129.72;;;26.43;23.12
77723;BME280;67811;42.656;23.394;2023-10-08T11:32:39;95150.47;;;26.63;22.70
77723;BME280;67811;42.656;23.394;2023-10-08T11:35:05;95144.25;;;26.18;23.25
77723;BME280;67811;42.656;23.394;2023-10-08T11:37:32;95138.59;;;25.50;24.00
77723;BME280;67811;42.656;23.394;2023-10-08T11:39:58;95132.38;;;25.44;24.05
77723;BME280;67811;42.656;23.394;2023-10-08T11:42:24;95136.66;;;25.61;24.11
77723;BME280;67811;42.656;23.394;2023-10-08T11:44:49;95132.31;;;25.55;24.23
77723;BME280;67811;42.656;23.394;2023-10-08T11:47:14;95148.44;;;25.20;25.11
77723;BME280;67811;42.656;23.394;2023-10-08T11:49:40;95153.59;;;25.02;25.20
77723;BME280;67811;42.656;23.394;2023-10-08T11:52:06;95127.59;;;24.80;25.40
77723;BME280;67811;42.656;23.394;2023-10-08T11:54:31;95128.94;;;24.83;25.80
77723;BME280;67811;42.656;23.394;2023-10-08T11:56:56;95145.78;;;24.59;25.86
77723;BME280;67811;42.656;23.394;2023-10-08T11:59:21;95148.47;;;24.49;26.21
77723;BME280;67811;42.656;23.394;2023-10-08T12:01:47;95140.06;;;24.71;26.31
77723;BME280;67811;42.656;23.394;2023-10-08T12:04:12;95133.03;;;24.65;26.15
77723;BME280;67811;42.656;23.394;2023-10-08T12:06:37;95141.69;;;24.77;26.17
77723;BME280;67811;42.656;23.394;2023-10-08T12:09:03;95136.31;;;24.62;26.02
77723;BME280;67811;42.656;23.394;2023-10-08T12:11:28;95133.03;;;24.65;26.07
77723;BME280;67811;42.656;23.394;2023-10-08T12:13:53;95126.22;;;25.08;26.18
77723;BME280;67811;42.656;23.394;2023-10-08T12:16:20;95110.44;;;25.31;25.50
77723;BME280;67811;42.656;23.394;2023-10-08T12:18:45;95119.34;;;25.46;25.28
77723;BME280;67811;42.656;23.394;2023-10-08T12:21:10;95125.28;;;25.48;25.98
77723;BME280;67811;42.656;23.394;2023-10-08T12:23:37;95130.91;;;25.67;25.22
77723;BME280;67811;42.656;23.394;2023-10-08T12:26:02;95122.59;;;26.03;24.69
77723;BME280;67811;42.656;23.394;2023-10-08T12:28:27;95129.97;;;26.37;24.55
77723;BME280;67811;42.656;23.394;2023-10-08T12:30:53;95121.97;;;26.21;24.76
77723;BME280;67811;42.656;23.394;2023-10-08T12:33:19;95129.72;;;25.99;26.06
77723;BME280;67811;42.656;23.394;2023-10-08T12:35:44;95126.91;;;26.09;25.79
77723;BME280;67811;42.656;23.394;2023-10-08T12:38:09;95131.59;;;25.98;26.24
77723;BME280;67811;42.656;23.394;2023-10-08T12:40:36;95132.81;;;25.67;27.82
77723;BME280;67811;42.656;23.394;2023-10-08T12:43:01;95136.25;;;25.13;26.64
77723;BME280;67811;42.656;23.394;2023-10-08T12:45:26;95131.13;;;24.65;27.32
77723;BME280;67811;42.656;23.394;2023-10-08T12:47:52;95120.84;;;24.67;27.38
77723;BME280;67811;42.656;23.394;2023-10-08T12:50:21;95121.63;;;24.88;27.88
77723;BME280;67811;42.656;23.394;2023-10-08T12:52:46;95119.72;;;25.14;26.76